Time;durP1;ratioP1;P1;durP2;ratioP2;P2;SDS_P1;SDS_P2;PMS_P1;PMS_P2;Temp;Humidity;BMP_temperature;BMP_pressure;BME280_temperature;BME280_humidity;BME280_pressure;Samples;Min_cycle;Max_cycle;Signal;HPM_P1;HPM_P2
2022/07/27 00:00:47;;;;;;;3.58;2.30;;;16.60;99.90;;;;;;5054271;28;20037;-66
2022/07/27 00:03:14;;;;;;;5.88;2.70;;;16.60;99.90;;;;;;5035563;28;20202;-66
2022/07/27 00:05:41;;;;;;;6.72;2.47;;;16.50;99.90;;;;;;5071572;28;20089;-66
2022/07/27 00:08:07;;;;;;;7.50;2.45;;;16.50;99.90;;;;;;5073943;28;20047;-66
2022/07/27 00:10:35;;;;;;;;;;;16.40;99.90;;;;;;5060329;28;20133;-66
2022/07/27 00:13:03;;;;;;;4.07;1.88;;;16.40;99.90;;;;;;5052931;28;19968;-66
2022/07/27 00:15:31;;;;;;;4.35;2.08;;;16.30;99.90;;;;;;5052929;28;20118;-66
2022/07/27 00:17:59;;;;;;;3.90;1.92;;;16.30;99.90;;;;;;5053576;28;20067;-66
2022/07/27 00:20:27;;;;;;;3.17;1.80;;;16.20;99.90;;;;;;5053569;28;20040;-66
2022/07/27 00:22:54;;;;;;;3.63;1.67;;;16.20;99.90;;;;;;5067642;28;20036;-66
2022/07/27 00:25:22;;;;;;;2.10;1.83;;;16.10;99.90;;;;;;5055851;28;20048;-66
2022/07/27 00:27:49;;;;;;;2.13;1.50;;;16.10;99.90;;;;;;5073552;28;20036;-66
2022/07/27 00:30:16;;;;;;;3.03;2.10;;;16.10;99.90;;;;;;5073124;28;20789;-66
2022/07/27 00:32:43;;;;;;;3.92;2.03;;;16.00;99.90;;;;;;5072955;28;20040;-66
2022/07/27 00:35:10;;;;;;;4.78;1.58;;;16.00;99.90;;;;;;5072537;28;20315;-66
2022/07/27 00:37:38;;;;;;;1.90;1.42;;;16.00;99.90;;;;;;5054778;28;20048;-65
2022/07/27 00:40:07;;;;;;;2.55;1.65;;;16.00;99.90;;;;;;5053207;28;20041;-66
2022/07/27 00:42:34;;;;;;;2.40;1.42;;;16.00;99.90;;;;;;5053435;28;20048;-66
2022/07/27 00:45:01;;;;;;;2.78;1.60;;;16.00;99.90;;;;;;5053098;28;20057;-66
2022/07/27 00:47:28;;;;;;;5.82;1.65;;;16.00;99.90;;;;;;5053082;28;20566;-66
2022/07/27 00:49:56;;;;;;;;;;;16.00;99.90;;;;;;5053598;28;20533;-65
2022/07/27 00:52:24;;;;;;;3.10;2.42;;;16.00;99.90;;;;;;5053454;28;19928;-66
2022/07/27 00:54:51;;;;;;;3.28;1.65;;;15.90;99.90;;;;;;5053373;28;20137;-65
2022/07/27 00:57:19;;;;;;;3.25;1.95;;;15.90;99.90;;;;;;5052806;28;20048;-66
2022/07/27 00:59:45;;;;;;;2.95;2.10;;;15.90;99.90;;;;;;5053405;28;20048;-66
2022/07/27 01:02:12;;;;;;;;;;;15.80;99.90;;;;;;5053751;28;20036;-66
2022/07/27 01:04:48;;;;;;;5.72;1.63;;;15.80;99.90;;;;;;5055809;28;19928;-66
2022/07/27 01:07:20;;;;;;;4.90;1.80;;;15.80;99.90;;;;;;5072381;28;20666;-66
2022/07/27 01:09:55;;;;;;;5.20;1.92;;;15.70;99.90;;;;;;5064296;28;20048;-66
2022/07/27 01:12:30;;;;;;;5.40;1.85;;;15.70;99.90;;;;;;5053719;28;20594;-65
2022/07/27 01:14:58;;;;;;;3.25;1.90;;;15.70;99.90;;;;;;5062861;28;20048;-65
2022/07/27 01:17:29;;;;;;;7.45;2.08;;;15.60;99.90;;;;;;5073209;28;20090;-65
2022/07/27 01:19:57;;;;;;;4.60;2.45;;;15.60;99.90;;;;;;5072798;28;20516;-66
2022/07/27 01:22:24;;;;;;;4.07;1.88;;;15.60;99.90;;;;;;5062894;28;20048;-66
2022/07/27 01:24:51;;;;;;;2.95;2.00;;;15.50;99.90;;;;;;5052340;28;20037;-66
2022/07/27 01:27:18;;;;;;;;;;;15.50;99.90;;;;;;5054028;28;20670;-66
2022/07/27 01:29:44;;;;;;;2.20;2.00;;;15.40;99.90;;;;;;5052827;28;19946;-66
2022/07/27 01:32:11;;;;;;;;;;;15.40;99.90;;;;;;5053276;28;20044;-66
2022/07/27 01:34:38;;;;;;;3.03;2.05;;;15.40;99.90;;;;;;5053191;28;20392;-66
2022/07/27 01:37:05;;;;;;;3.15;1.90;;;15.40;99.90;;;;;;5066588;28;20546;-66
2022/07/27 01:39:32;;;;;;;2.78;1.90;;;15.30;99.90;;;;;;5073080;28;20998;-66
2022/07/27 01:41:59;;;;;;;3.65;1.60;;;15.30;99.90;;;;;;5072605;28;20771;-66
2022/07/27 01:44:27;;;;;;;2.85;1.88;;;15.30;99.90;;;;;;5073047;28;20057;-66
2022/07/27 01:46:54;;;;;;;2.78;1.95;;;15.20;99.90;;;;;;5074466;28;20036;-66
2022/07/27 01:49:21;;;;;;;4.45;2.00;;;15.20;99.90;;;;;;5075010;28;20071;-66
2022/07/27 01:51:48;;;;;;;9.60;2.08;;;15.20;99.90;;;;;;5077033;28;20036;-66
2022/07/27 01:54:15;;;;;;;5.28;2.60;;;15.20;99.90;;;;;;5076111;28;20576;-66
2022/07/27 01:56:42;;;;;;;9.93;3.33;;;15.20;99.90;;;;;;5076587;28;20054;-65
2022/07/27 01:59:08;;;;;;;;;;;15.10;99.90;;;;;;5077041;28;20984;-66
2022/07/27 02:01:43;;;;;;;11.02;3.05;;;15.10;99.90;;;;;;5076908;28;20536;-66
2022/07/27 02:04:10;;;;;;;5.60;2.65;;;15.10;99.90;;;;;;5075768;28;20071;-66
2022/07/27 02:06:37;;;;;;;;;;;15.10;99.90;;;;;;5076407;28;20040;-66
2022/07/27 02:09:04;;;;;;;4.72;3.20;;;15.00;99.90;;;;;;5074788;28;19928;-66
2022/07/27 02:14:16;;;;;;;4.15;3.03;;;14.90;99.90;;;;;;5055588;28;20002;-66
2022/07/27 02:16:42;;;;;;;7.43;2.90;;;14.90;99.90;;;;;;5071183;28;20474;-66
2022/07/27 02:19:10;;;;;;;4.43;2.90;;;14.90;99.90;;;;;;5076220;28;20044;-66
2022/07/27 02:21:38;;;;;;;4.88;2.40;;;14.90;99.90;;;;;;5072019;28;20123;-65
2022/07/27 02:24:05;;;;;;;5.63;2.38;;;14.90;99.90;;;;;;5038079;28;20053;-66
2022/07/27 02:26:32;;;;;;;3.13;2.20;;;14.90;99.90;;;;;;5055324;28;20044;-66
2022/07/27 02:28:58;;;;;;;;;;;15.00;99.90;;;;;;5056277;28;20053;-66
2022/07/27 02:31:25;;;;;;;2.53;2.22;;;15.00;99.90;;;;;;5055686;28;20466;-65
2022/07/27 02:33:58;;;;;;;7.18;2.60;;;15.00;99.90;;;;;;5054111;28;20052;-66
2022/07/27 02:36:27;;;;;;;;;;;15.00;99.90;;;;;;5064536;28;20040;-65
2022/07/27 02:38:55;;;;;;;2.40;2.13;;;15.00;99.90;;;;;;5075804;28;19928;-65
2022/07/27 02:41:22;;;;;;;3.28;2.42;;;15.10;99.90;;;;;;5075643;28;20105;-65
2022/07/27 02:43:49;;;;;;;;;;;15.10;99.90;;;;;;5075319;28;20214;-65
2022/07/27 02:46:15;;;;;;;14.27;2.95;;;15.20;99.90;;;;;;5075561;28;19955;-65
2022/07/27 02:48:42;;;;;;;2.78;2.00;;;15.30;99.90;;;;;;5075321;28;20055;-66
2022/07/27 02:51:09;;;;;;;3.50;2.17;;;15.30;99.90;;;;;;5075251;28;20105;-65
2022/07/27 02:53:36;;;;;;;;;;;15.30;99.90;;;;;;5075902;28;20728;-66
2022/07/27 02:56:03;;;;;;;6.68;2.45;;;15.40;99.90;;;;;;5076042;28;20439;-66
2022/07/27 02:58:30;;;;;;;4.10;1.92;;;15.40;99.90;;;;;;5072453;28;20090;-66
2022/07/27 03:00:56;;;;;;;2.92;2.17;;;15.40;99.90;;;;;;5067617;28;20620;-67
2022/07/27 03:03:25;;;;;;;2.45;2.08;;;15.50;99.90;;;;;;5067288;28;20529;-65
2022/07/27 03:06:06;;;;;;;3.03;2.50;;;15.50;99.90;;;;;;5074749;28;20047;-66
2022/07/27 03:08:34;;;;;;;2.50;2.03;;;15.50;99.90;;;;;;5073116;28;20040;-67
2022/07/27 03:11:01;;;;;;;2.45;1.90;;;15.50;99.90;;;;;;5074063;28;20043;-65
2022/07/27 03:13:28;;;;;;;;;;;15.50;99.90;;;;;;5068690;28;20792;-65
2022/07/27 03:15:56;;;;;;;3.67;2.10;;;15.60;99.90;;;;;;5053443;28;19970;-66
2022/07/27 03:18:23;;;;;;;3.33;2.45;;;15.60;99.90;;;;;;5054277;28;20960;-66
2022/07/27 03:20:50;;;;;;;2.65;2.20;;;15.60;99.90;;;;;;5054357;28;20071;-66
2022/07/27 03:23:17;;;;;;;;;;;15.60;99.90;;;;;;5072279;28;20070;-66
2022/07/27 03:25:43;;;;;;;3.60;1.93;;;15.60;99.90;;;;;;5075440;28;19924;-66
2022/07/27 03:28:10;;;;;;;;;;;15.60;99.90;;;;;;5074619;28;20048;-66
2022/07/27 03:30:37;;;;;;;6.75;2.33;;;15.60;99.90;;;;;;5039985;28;19924;-66
2022/07/27 03:33:04;;;;;;;;;;;15.50;99.90;;;;;;5074092;28;20583;-66
2022/07/27 03:35:31;;;;;;;6.95;4.53;;;15.50;99.90;;;;;;5055343;28;19956;-65
2022/07/27 03:37:57;;;;;;;;;;;15.50;99.90;;;;;;5054347;28;20044;-66
2022/07/27 03:40:24;;;;;;;3.60;2.40;;;15.50;99.90;;;;;;5054313;28;19923;-66
2022/07/27 03:42:51;;;;;;;5.57;2.33;;;15.40;99.90;;;;;;5035967;28;20420;-66
2022/07/27 03:45:18;;;;;;;3.15;2.10;;;15.40;99.90;;;;;;5052304;28;20131;-66
2022/07/27 03:47:45;;;;;;;5.22;2.45;;;15.40;99.90;;;;;;5054011;28;20048;-66
2022/07/27 03:50:12;;;;;;;;;;;15.40;99.90;;;;;;5054057;28;20047;-66
2022/07/27 03:52:39;;;;;;;7.57;3.55;;;15.40;99.90;;;;;;5054246;28;19932;-66
2022/07/27 03:55:11;;;;;;;13.23;2.63;;;15.50;99.90;;;;;;5051987;28;20040;-66
2022/07/27 03:57:37;;;;;;;;;;;15.40;99.90;;;;;;5053218;28;20045;-66
2022/07/27 04:00:05;;;;;;;2.72;2.22;;;15.40;99.90;;;;;;5053779;28;20214;-66
2022/07/27 04:02:32;;;;;;;6.10;3.20;;;15.40;99.90;;;;;;5036340;28;20040;-66
2022/07/27 04:04:59;;;;;;;5.18;2.03;;;15.40;99.90;;;;;;5051923;28;20160;-66
2022/07/27 04:07:26;;;;;;;;;;;15.40;99.90;;;;;;5054687;28;20041;-65
2022/07/27 04:09:53;;;;;;;4.88;2.47;;;15.40;99.90;;;;;;5070221;28;19931;-65
2022/07/27 04:12:19;;;;;;;;;;;15.40;99.90;;;;;;5055993;28;20071;-65
2022/07/27 04:14:47;;;;;;;4.70;2.30;;;15.40;99.90;;;;;;5073317;28;19924;-65
2022/07/27 04:17:13;;;;;;;;;;;15.40;99.90;;;;;;5061932;28;20048;-65
2022/07/27 04:20:00;;;;;;;2.08;1.77;;;15.40;99.90;;;;;;5053528;28;20013;-65
2022/07/27 04:22:27;;;;;;;;;;;15.40;99.90;;;;;;5063834;28;20052;-65
2022/07/27 04:24:54;;;;;;;2.72;2.08;;;15.40;99.90;;;;;;5038691;28;19930;-65
2022/07/27 04:27:21;;;;;;;4.68;2.30;;;15.40;99.90;;;;;;5073342;28;20139;-65
2022/07/27 04:29:48;;;;;;;;;;;15.40;99.90;;;;;;5074130;28;20082;-65
2022/07/27 04:32:14;;;;;;;2.20;1.75;;;15.50;99.90;;;;;;5073282;28;19931;-65
2022/07/27 04:34:41;;;;;;;;;;;15.50;99.90;;;;;;5074063;28;20044;-65
2022/07/27 04:37:08;;;;;;;2.10;1.88;;;15.60;99.90;;;;;;5059084;28;19924;-65
2022/07/27 04:39:34;;;;;;;;;;;15.60;99.90;;;;;;5053315;28;20747;-65
2022/07/27 04:42:01;;;;;;;3.47;2.22;;;15.60;99.90;;;;;;5053690;28;19924;-66
2022/07/27 04:44:28;;;;;;;;;;;15.70;99.90;;;;;;5053756;28;20044;-54
2022/07/27 04:46:55;;;;;;;3.13;2.33;;;15.70;99.90;;;;;;5053676;28;19927;-52
2022/07/27 04:49:21;;;;;;;;;;;15.70;99.90;;;;;;5053636;28;20036;-54
2022/07/27 04:51:48;;;;;;;2.22;1.63;;;15.80;99.90;;;;;;5052165;28;20469;-53
2022/07/27 04:54:15;;;;;;;;;;;15.80;99.90;;;;;;5053681;28;20507;-53
2022/07/27 04:56:42;;;;;;;2.13;1.55;;;15.80;99.90;;;;;;5052999;28;19951;-53
2022/07/27 04:59:09;;;;;;;;;;;15.80;99.90;;;;;;5053736;28;20066;-53
2022/07/27 05:01:36;;;;;;;3.30;2.22;;;15.80;99.90;;;;;;5053409;28;20019;-53
2022/07/27 05:04:03;;;;;;;3.17;1.73;;;15.80;99.90;;;;;;5053550;28;20133;-53
2022/07/27 05:06:31;;;;;;;2.45;1.63;;;15.80;99.90;;;;;;5051550;28;20139;-53
2022/07/27 05:08:58;;;;;;;7.07;2.10;;;15.90;99.90;;;;;;5056323;28;20058;-52
2022/07/27 05:11:25;;;;;;;2.35;2.05;;;15.90;99.90;;;;;;5070913;28;20078;-52
2022/07/27 05:13:52;;;;;;;3.22;2.30;;;15.90;99.90;;;;;;5073150;28;20054;-49
2022/07/27 05:16:19;;;;;;;5.72;2.20;;;15.90;99.90;;;;;;5073093;28;20105;-51
2022/07/27 05:18:52;;;;;;;7.03;2.22;;;16.00;99.90;;;;;;5073213;28;20040;-51
2022/07/27 05:21:18;;;;;;;;;;;16.00;99.90;;;;;;5074185;28;20172;-52
2022/07/27 05:23:45;;;;;;;5.25;2.40;;;16.10;99.90;;;;;;5055281;28;19925;-52
2022/07/27 05:26:12;;;;;;;3.42;2.53;;;16.20;99.90;;;;;;5056110;28;20110;-52
2022/07/27 05:28:40;;;;;;;6.88;2.55;;;16.20;99.90;;;;;;5056391;28;20701;-52
2022/07/27 05:31:07;;;;;;;;;;;16.30;99.90;;;;;;5056142;28;20057;-52
2022/07/27 05:33:34;;;;;;;5.50;2.83;;;16.30;99.90;;;;;;5056364;28;20475;-52
2022/07/27 05:36:00;;;;;;;;;;;16.40;99.90;;;;;;5062134;28;20055;-51
2022/07/27 05:38:27;;;;;;;2.47;2.15;;;16.50;99.90;;;;;;5076661;28;19952;-51
2022/07/27 05:40:54;;;;;;;4.30;2.08;;;16.50;99.90;;;;;;5076386;28;20048;-52
2022/07/27 05:43:21;;;;;;;2.60;2.10;;;16.60;99.90;;;;;;5076298;28;20583;-52
2022/07/27 05:45:49;;;;;;;;;;;16.70;99.90;;;;;;5077296;28;20044;-51
2022/07/27 05:48:16;;;;;;;4.45;2.33;;;16.70;99.90;;;;;;5059005;28;20001;-51
2022/07/27 05:50:42;;;;;;;6.10;2.80;;;16.80;99.90;;;;;;5058814;28;20052;-51
2022/07/27 05:53:09;;;;;;;;;;;16.90;99.90;;;;;;5075988;28;20048;-52
2022/07/27 05:55:36;;;;;;;3.15;2.50;;;17.00;99.90;;;;;;5077331;28;20540;-50
2022/07/27 05:58:03;;;;;;;4.75;2.55;;;17.10;99.90;;;;;;5075091;28;20040;-54
2022/07/27 06:00:31;;;;;;;2.95;2.55;;;17.20;99.90;;;;;;5077080;28;20044;-52
2022/07/27 06:02:57;;;;;;;3.63;2.08;;;17.30;99.90;;;;;;5076212;28;20059;-50
2022/07/27 06:05:24;;;;;;;;;;;17.30;99.90;;;;;;5075872;28;20105;-52
2022/07/27 06:08:07;;;;;;;4.97;2.47;;;17.30;99.90;;;;;;5076127;28;19928;-53
2022/07/27 06:10:37;;;;;;;2.65;1.95;;;17.40;99.90;;;;;;5069969;28;20054;-49
2022/07/27 06:13:05;;;;;;;5.72;2.30;;;17.50;99.90;;;;;;5067807;28;20036;-61
2022/07/27 06:15:33;;;;;;;3.78;2.28;;;17.50;99.90;;;;;;5053227;28;20041;-52
2022/07/27 06:18:00;;;;;;;2.78;2.00;;;17.60;99.90;;;;;;5052695;28;20139;-52
2022/07/27 06:20:27;;;;;;;4.28;2.10;;;17.70;99.90;;;;;;5052588;28;20048;-52
2022/07/27 06:23:02;;;;;;;2.35;1.92;;;17.80;99.90;;;;;;5067556;28;20060;-50
2022/07/27 06:25:34;;;;;;;3.70;2.40;;;17.90;99.90;;;;;;5057268;28;20036;-49
2022/07/27 06:28:03;;;;;;;3.55;1.95;;;18.00;99.90;;;;;;5075699;28;20044;-52
2022/07/27 06:30:31;;;;;;;4.63;1.80;;;18.10;99.90;;;;;;5075441;28;20039;-52
2022/07/27 06:32:58;;;;;;;4.05;2.00;;;18.20;99.90;;;;;;5073777;28;20129;-51
2022/07/27 06:35:26;;;;;;;3.45;2.08;;;18.40;99.90;;;;;;5073825;28;20134;-50
2022/07/27 06:37:52;;;;;;;3.70;2.00;;;18.50;99.90;;;;;;5054410;28;20080;-50
2022/07/27 06:40:22;;;;;;;3.67;2.45;;;18.60;99.90;;;;;;5054890;28;20098;-52
2022/07/27 06:42:55;;;;;;;3.72;2.00;;;18.70;99.90;;;;;;5055350;28;20049;-52
2022/07/27 06:45:21;;;;;;;8.55;2.28;;;18.80;99.90;;;;;;5055112;28;20094;-52
2022/07/27 06:47:49;;;;;;;;;;;18.90;99.90;;;;;;5055033;28;20106;-52
2022/07/27 06:50:19;;;;;;;5.97;2.17;;;18.90;99.90;;;;;;5055437;28;19931;-53
2022/07/27 06:52:49;;;;;;;2.72;1.83;;;19.00;99.90;;;;;;5055450;28;20045;-49
2022/07/27 06:55:16;;;;;;;6.65;2.10;;;19.00;99.90;;;;;;5055338;28;20040;-50
2022/07/27 06:57:44;;;;;;;2.95;1.73;;;19.10;99.90;;;;;;5036896;28;20060;-50
2022/07/27 07:00:12;;;;;;;6.32;2.10;;;19.10;99.90;;;;;;5055054;28;20036;-50
2022/07/27 07:02:51;;;;;;;7.20;1.77;;;19.10;99.90;;;;;;5069943;28;20048;-51
2022/07/27 07:05:18;;;;;;;5.65;1.92;;;19.20;99.90;;;;;;5075044;28;20044;-48
2022/07/27 07:07:45;;;;;;;6.95;1.77;;;19.20;99.90;;;;;;5075115;28;20497;-49
2022/07/27 07:10:13;;;;;;;3.85;2.13;;;19.20;99.90;;;;;;5063616;28;20105;-51
2022/07/27 07:12:40;;;;;;;5.72;2.00;;;19.30;99.90;;;;;;5068978;28;20044;-49
2022/07/27 07:15:07;;;;;;;3.65;1.88;;;19.30;99.90;;;;;;5075017;28;20723;-50
2022/07/27 07:17:34;;;;;;;2.15;1.75;;;19.30;99.90;;;;;;5073159;28;20050;-48
2022/07/27 07:20:03;;;;;;;3.15;1.70;;;19.30;99.90;;;;;;5054100;28;20040;-50
2022/07/27 07:22:32;;;;;;;4.03;2.63;;;19.40;99.90;;;;;;5064090;28;20051;-49
2022/07/27 07:25:02;;;;;;;2.88;1.80;;;19.40;99.90;;;;;;5074069;28;20032;-50
2022/07/27 07:27:29;;;;;;;3.28;2.20;;;19.40;99.90;;;;;;5074926;28;20040;-53
2022/07/27 07:29:56;;;;;;;3.95;2.58;;;19.50;99.90;;;;;;5074400;28;20044;-54
2022/07/27 07:32:23;;;;;;;3.92;2.00;;;19.50;99.90;;;;;;5074016;28;20048;-61
2022/07/27 07:34:57;;;;;;;2.78;1.77;;;19.60;99.90;;;;;;5069428;28;20052;-63
2022/07/27 07:37:24;;;;;;;4.40;2.60;;;19.70;99.90;;;;;;5071074;28;20054;-68
2022/07/27 07:40:00;;;;;;;11.35;2.53;;;19.80;99.90;;;;;;5074521;28;20039;-67
2022/07/27 07:42:55;;;;;;;8.63;2.33;;;20.10;99.90;;;;;;5074568;28;20153;-66
2022/07/27 07:45:23;;;;;;;4.95;2.15;;;20.30;99.90;;;;;;5073880;28;20105;-65
2022/07/27 07:47:51;;;;;;;7.05;2.28;;;20.50;99.90;;;;;;5074423;28;20048;-65
2022/07/27 07:50:19;;;;;;;3.33;2.28;;;20.60;99.90;;;;;;5074105;28;20036;-67
2022/07/27 07:52:52;;;;;;;3.25;2.00;;;20.80;99.90;;;;;;5073864;28;20052;-63
2022/07/27 07:55:26;;;;;;;2.42;1.83;;;20.90;99.90;;;;;;5074873;28;20674;-62
2022/07/27 07:57:55;;;;;;;6.97;1.92;;;21.00;99.90;;;;;;5071977;28;20048;-63
2022/07/27 08:00:22;;;;;;;2.53;1.92;;;21.20;99.90;;;;;;5073984;28;20051;-65
2022/07/27 08:02:53;;;;;;;3.65;2.00;;;21.30;99.90;;;;;;5074211;28;20649;-63
2022/07/27 08:05:21;;;;;;;3.58;2.45;;;21.40;99.90;;;;;;5072912;28;20093;-62
2022/07/27 08:07:49;;;;;;;3.55;2.08;;;21.60;99.90;;;;;;5074164;28;20044;-63
2022/07/27 08:10:18;;;;;;;3.88;1.90;;;21.70;99.90;;;;;;5062019;28;20536;-61
2022/07/27 08:12:48;;;;;;;7.80;2.10;;;21.90;99.90;;;;;;5068327;28;20051;-62
2022/07/27 08:15:16;;;;;;;5.20;2.33;;;22.00;99.90;;;;;;5072596;28;20047;-62
2022/07/27 08:17:43;;;;;;;4.57;2.17;;;22.10;99.90;;;;;;5051531;28;20606;-62
2022/07/27 08:20:12;;;;;;;6.45;2.22;;;22.20;99.90;;;;;;5053509;28;20047;-62
2022/07/27 08:22:39;;;;;;;13.18;3.53;;;22.20;94.70;;;;;;5047441;28;20048;-64
2022/07/27 08:25:07;;;;;;;11.95;3.85;;;22.10;97.10;;;;;;5072482;28;20865;-63
2022/07/27 08:27:34;;;;;;;6.22;2.30;;;22.10;99.90;;;;;;5074199;28;20052;-62
2022/07/27 08:30:09;;;;;;;5.00;2.20;;;22.20;99.20;;;;;;5073705;28;20135;-63
2022/07/27 08:32:53;;;;;;;17.50;2.40;;;22.10;98.40;;;;;;5073397;28;20500;-63
2022/07/27 08:35:21;;;;;;;8.73;2.63;;;22.10;99.90;;;;;;5073848;28;20245;-63
2022/07/27 08:37:49;;;;;;;4.20;1.90;;;22.10;99.90;;;;;;5053243;28;20048;-63
2022/07/27 08:40:18;;;;;;;3.97;2.40;;;22.20;99.90;;;;;;5052527;28;20059;-63
2022/07/27 08:43:06;;;;;;;3.47;1.88;;;22.10;99.90;;;;;;5052736;28;20047;-63
2022/07/27 08:45:34;;;;;;;3.13;2.22;;;22.10;99.80;;;;;;5052843;28;20045;-63
2022/07/27 08:48:01;;;;;;;5.60;2.30;;;22.10;99.90;;;;;;5035218;28;20060;-63
2022/07/27 08:50:29;;;;;;;3.95;2.05;;;22.10;99.90;;;;;;5053053;28;20045;-63
2022/07/27 08:53:05;;;;;;;6.38;2.10;;;22.10;98.00;;;;;;5052709;28;20585;-63
2022/07/27 08:55:34;;;;;;;5.05;1.85;;;22.10;97.00;;;;;;5051704;28;20056;-62
2022/07/27 08:58:02;;;;;;;3.85;2.10;;;22.10;97.30;;;;;;5057139;28;20043;-63
2022/07/27 09:00:31;;;;;;;6.47;2.38;;;22.10;95.80;;;;;;5039080;28;20051;-63
2022/07/27 09:02:58;;;;;;;4.20;1.75;;;22.10;95.80;;;;;;5055945;28;20048;-63
2022/07/27 09:05:25;;;;;;;6.68;2.30;;;22.10;97.60;;;;;;5056693;28;20180;-64
2022/07/27 09:08:11;;;;;;;8.73;2.08;;;22.10;95.00;;;;;;5057447;28;20124;-62
2022/07/27 09:10:38;;;;;;;3.75;1.75;;;22.30;95.90;;;;;;5069527;28;20048;-61
2022/07/27 09:13:26;;;;;;;2.75;1.77;;;22.50;93.70;;;;;;5061280;28;20040;-61
2022/07/27 09:15:57;;;;;;;;;;;22.70;95.00;;;;;;5068287;28;20036;-61
2022/07/27 09:18:44;;;;;;;4.47;2.15;;;23.00;96.00;;;;;;5055486;28;20431;-62
2022/07/27 09:21:19;;;;;;;3.50;2.05;;;23.30;94.50;;;;;;5057017;28;20064;-60
2022/07/27 09:23:53;;;;;;;4.43;1.75;;;23.40;89.60;;;;;;5055938;28;20041;-60
2022/07/27 09:26:26;;;;;;;3.95;1.52;;;23.50;79.00;;;;;;5056561;28;20045;-60
2022/07/27 09:29:12;;;;;;;3.33;1.48;;;23.70;81.80;;;;;;5056899;28;20996;-60
2022/07/27 09:31:42;;;;;;;4.63;1.52;;;23.90;79.90;;;;;;5056843;28;20040;-60
2022/07/27 09:34:10;;;;;;;4.30;1.95;;;24.10;82.80;;;;;;5056240;28;20052;-59
2022/07/27 09:36:54;;;;;;;2.85;1.50;;;24.40;76.00;;;;;;5066508;28;20056;-59
2022/07/27 09:39:22;;;;;;;2.75;1.58;;;24.40;70.50;;;;;;5072180;28;21877;-60
2022/07/27 09:41:55;;;;;;;4.03;1.98;;;24.50;69.00;;;;;;5056490;28;20135;-60
2022/07/27 09:44:39;;;;;;;6.43;2.15;;;24.60;72.20;;;;;;5056164;28;20040;-59
2022/07/27 09:47:26;;;;;;;2.90;1.60;;;24.60;66.30;;;;;;5056755;28;20872;-61
2022/07/27 09:50:17;;;;;;;2.88;1.55;;;24.40;66.70;;;;;;5056260;28;20438;-60
2022/07/27 09:52:45;;;;;;;3.17;1.73;;;24.20;67.70;;;;;;5055078;28;20052;-60
2022/07/27 09:55:12;;;;;;;5.72;1.70;;;24.10;68.40;;;;;;5054874;28;20738;-59
2022/07/27 09:57:56;;;;;;;2.08;1.60;;;23.90;71.80;;;;;;5056410;28;20044;-61
2022/07/27 10:00:24;;;;;;;6.35;2.10;;;23.90;72.40;;;;;;5055886;28;20068;-61
2022/07/27 10:02:52;;;;;;;6.85;2.00;;;24.10;73.90;;;;;;5056351;28;20051;-63
2022/07/27 10:05:21;;;;;;;16.08;2.10;;;24.30;72.90;;;;;;5055558;28;20044;-63
2022/07/27 10:07:49;;;;;;;4.22;1.80;;;24.50;78.90;;;;;;5054386;28;20067;-63
2022/07/27 10:10:16;;;;;;;3.55;1.40;;;24.80;73.60;;;;;;5065715;28;20097;-62
2022/07/27 10:12:43;;;;;;;6.43;2.08;;;25.00;70.20;;;;;;5058808;28;20041;-62
2022/07/27 10:15:15;;;;;;;4.80;1.58;;;25.10;69.20;;;;;;5067708;28;20102;-63
2022/07/27 10:17:44;;;;;;;2.42;1.85;;;25.20;62.70;;;;;;5040952;28;20067;-64
2022/07/27 10:20:15;;;;;;;3.08;2.20;;;25.30;61.90;;;;;;5056977;28;20040;-63
2022/07/27 10:22:51;;;;;;;7.95;1.80;;;25.20;65.40;;;;;;5045313;28;20128;-62
2022/07/27 10:25:18;;;;;;;5.07;1.70;;;25.20;67.90;;;;;;5056278;28;20037;-62
2022/07/27 10:27:47;;;;;;;3.17;1.60;;;25.30;68.10;;;;;;5055651;28;20044;-62
2022/07/27 10:30:18;;;;;;;3.40;1.60;;;25.50;68.50;;;;;;5055756;28;20139;-63
2022/07/27 10:32:50;;;;;;;2.72;1.17;;;25.70;64.00;;;;;;5055291;28;20055;-62
2022/07/27 10:35:35;;;;;;;3.90;1.60;;;25.70;62.80;;;;;;5054537;28;20055;-63
2022/07/27 10:38:12;;;;;;;6.10;1.80;;;25.70;63.80;;;;;;5053549;28;20053;-62
2022/07/27 10:40:38;;;;;;;2.90;1.52;;;25.90;64.80;;;;;;5055877;28;20037;-63
2022/07/27 10:43:16;;;;;;;3.67;1.50;;;26.00;63.00;;;;;;5056935;28;20044;-60
2022/07/27 10:45:46;;;;;;;4.32;1.50;;;26.40;60.30;;;;;;5060284;28;20132;-62
2022/07/27 10:48:38;;;;;;;3.70;1.48;;;26.50;61.50;;;;;;5055148;28;20040;-62
2022/07/27 10:51:15;;;;;;;1.85;1.60;;;26.90;59.40;;;;;;5053979;28;20052;-62
2022/07/27 10:53:44;;;;;;;2.10;1.50;;;27.20;59.70;;;;;;5055068;28;20049;-62
2022/07/27 10:56:45;;;;;;;2.08;1.13;;;27.50;58.30;;;;;;5055307;28;20052;-62
2022/07/27 10:59:12;;;;;;;3.10;1.40;;;27.90;55.90;;;;;;5055507;28;20064;-62
2022/07/27 11:01:57;;;;;;;2.60;1.40;;;28.10;56.50;;;;;;5054879;28;20091;-62
2022/07/27 11:04:24;;;;;;;3.30;1.58;;;28.30;52.80;;;;;;5047861;28;20071;-64
2022/07/27 11:06:56;;;;;;;5.53;1.50;;;28.40;51.40;;;;;;5056948;28;20048;-63
2022/07/27 11:09:45;;;;;;;4.72;1.55;;;28.30;51.20;;;;;;5066570;28;20051;-63
2022/07/27 11:12:33;;;;;;;8.18;1.23;;;28.30;51.70;;;;;;5068557;28;20052;-63
2022/07/27 11:15:01;;;;;;;3.53;1.27;;;28.40;50.10;;;;;;5059547;28;20158;-63
2022/07/27 11:17:29;;;;;;;2.20;1.17;;;28.40;48.10;;;;;;5073295;28;20047;-63
2022/07/27 11:20:21;;;;;;;6.63;1.38;;;28.40;50.90;;;;;;5058315;28;20109;-63
2022/07/27 11:22:48;;;;;;;5.88;1.30;;;28.40;51.10;;;;;;5060664;28;20311;-63
2022/07/27 11:25:35;;;;;;;2.30;1.50;;;28.40;51.00;;;;;;5053634;28;20550;-63
2022/07/27 11:28:06;;;;;;;2.42;1.20;;;28.30;52.50;;;;;;5054240;28;20619;-63
2022/07/27 11:30:33;;;;;;;6.40;1.30;;;28.20;52.40;;;;;;5054055;28;20052;-61
2022/07/27 11:33:03;;;;;;;2.30;1.08;;;28.20;50.70;;;;;;5053732;28;20885;-60
2022/07/27 11:35:30;;;;;;;1.27;0.95;;;28.30;51.40;;;;;;5055216;28;20671;-59
2022/07/27 11:38:03;;;;;;;1.80;1.00;;;28.30;48.80;;;;;;5056443;28;20044;-59
2022/07/27 11:40:49;;;;;;;1.55;1.17;;;28.00;49.10;;;;;;5074359;28;20647;-59
2022/07/27 11:43:39;;;;;;;4.65;1.10;;;27.80;49.60;;;;;;5056937;28;20048;-62
2022/07/27 11:46:29;;;;;;;3.78;1.20;;;27.70;51.30;;;;;;5071657;28;20040;-63
2022/07/27 11:49:03;;;;;;;5.57;1.48;;;27.60;51.40;;;;;;5074731;28;20048;-63
2022/07/27 11:51:45;;;;;;;8.85;1.52;;;27.70;50.80;;;;;;5075228;28;20051;-63
2022/07/27 11:54:21;;;;;;;1.90;1.08;;;27.70;52.40;;;;;;5054733;28;20048;-63
2022/07/27 11:57:03;;;;;;;3.73;1.20;;;27.80;50.80;;;;;;5054631;28;20070;-63
2022/07/27 11:59:31;;;;;;;10.30;1.15;;;27.90;49.70;;;;;;5054690;28;20094;-61
2022/07/27 12:02:01;;;;;;;3.22;1.33;;;27.70;49.60;;;;;;5054566;28;20047;-61
2022/07/27 12:04:48;;;;;;;3.38;1.25;;;27.70;50.70;;;;;;5052634;28;20051;-60
2022/07/27 12:07:18;;;;;;;;;;;27.60;51.60;;;;;;5055136;28;20033;-62
2022/07/27 12:09:47;;;;;;;9.77;2.45;;;27.50;52.90;;;;;;5061668;28;19927;-63
2022/07/27 12:12:15;;;;;;;19.08;3.47;;;27.40;53.10;;;;;;5060638;28;20474;-60
2022/07/27 12:14:50;;;;;;;3.25;1.70;;;27.30;53.40;;;;;;5061828;28;20043;-60
2022/07/27 12:17:32;;;;;;;8.50;1.92;;;27.10;53.70;;;;;;5069280;28;20043;-60
2022/07/27 12:20:11;;;;;;;3.75;1.70;;;26.90;52.30;;;;;;5054028;28;20052;-61
2022/07/27 12:22:49;;;;;;;4.13;1.58;;;26.70;52.60;;;;;;5053499;28;20040;-61
2022/07/27 12:25:16;;;;;;;5.93;1.60;;;26.50;54.30;;;;;;5053076;28;20046;-62
2022/07/27 12:28:00;;;;;;;3.88;1.50;;;26.30;53.00;;;;;;5054357;28;20131;-61
2022/07/27 12:30:31;;;;;;;3.25;1.60;;;26.20;53.00;;;;;;5070048;28;20048;-61
2022/07/27 12:33:00;;;;;;;4.95;1.30;;;26.20;52.60;;;;;;5055411;28;20048;-64
2022/07/27 12:35:29;;;;;;;3.22;1.90;;;26.20;51.90;;;;;;5019228;28;20071;-63
2022/07/27 12:38:06;;;;;;;3.58;1.52;;;26.20;53.00;;;;;;5054329;28;20040;-64
2022/07/27 12:40:41;;;;;;;8.85;2.22;;;26.10;51.50;;;;;;5051134;28;20391;-63
2022/07/27 12:43:08;;;;;;;7.47;1.70;;;26.10;52.70;;;;;;5053451;28;20385;-64
2022/07/27 12:45:36;;;;;;;2.28;1.55;;;26.00;52.90;;;;;;5052636;28;20041;-64
2022/07/27 12:48:19;;;;;;;2.70;1.40;;;26.00;52.10;;;;;;5053248;28;20044;-64
2022/07/27 12:50:56;;;;;;;3.28;1.42;;;26.00;52.20;;;;;;5052930;28;20045;-63
2022/07/27 12:53:23;;;;;;;4.25;1.30;;;26.00;54.40;;;;;;5052310;28;20123;-63
2022/07/27 12:55:49;;;;;;;4.50;1.20;;;26.10;53.70;;;;;;5052092;28;20221;-63
2022/07/27 12:58:16;;;;;;;6.93;1.73;;;26.10;53.20;;;;;;5051085;28;20072;-64
2022/07/27 13:00:43;;;;;;;2.17;1.23;;;26.20;52.60;;;;;;5053727;28;20406;-64
2022/07/27 13:03:10;;;;;;;1.70;1.60;;;26.40;54.40;;;;;;5034484;28;20048;-63
2022/07/27 13:05:37;;;;;;;4.57;1.60;;;26.50;53.00;;;;;;5053586;28;20048;-64
2022/07/27 13:08:05;;;;;;;3.33;1.48;;;26.70;53.90;;;;;;5052714;28;20094;-64
2022/07/27 13:10:33;;;;;;;3.60;1.48;;;26.90;53.10;;;;;;5052518;28;20261;-65
2022/07/27 13:12:59;;;;;;;2.17;1.67;;;27.10;53.90;;;;;;5068166;28;20507;-64